Time;durP1;ratioP1;P1;durP2;ratioP2;P2;SDS_P1;SDS_P2;PMS_P1;PMS_P2;Temp;Humidity;BMP_temperature;BMP_pressure;BME280_temperature;BME280_humidity;BME280_pressure;Samples;Min_cycle;Max_cycle;Signal;HPM_P1;HPM_P2
2021/04/19 00:01:36;;;;;;;11.73;8.43;;;;;;;8.51;86.20;100579.73;645554;218;24764;-73
2021/04/19 00:04:04;;;;;;;9.30;7.20;;;;;;;8.27;87.10;100576.81;646224;219;24767;-73
2021/04/19 00:06:32;;;;;;;10.10;8.07;;;;;;;8.24;88.37;100578.36;648550;219;26932;-73
2021/04/19 00:09:00;;;;;;;11.40;7.27;;;;;;;8.19;88.88;100580.97;647401;218;24756;-73
2021/04/19 00:11:28;;;;;;;10.67;8.13;;;;;;;8.25;88.72;100574.00;647980;219;24864;-74
2021/04/19 00:13:56;;;;;;;10.93;8.73;;;;;;;8.84;86.57;100565.33;633311;222;33344;-73
2021/04/19 00:16:24;;;;;;;11.87;8.00;;;;;;;8.48;87.42;100565.73;640643;222;24818;-74
2021/04/19 00:18:52;;;;;;;11.93;7.60;;;;;;;8.34;88.47;100568.13;635801;222;24814;-74
2021/04/19 00:21:20;;;;;;;13.20;8.47;;;;;;;8.46;87.53;100574.11;650038;217;24851;-74
2021/04/19 00:23:48;;;;;;;12.40;8.90;;;;;;;8.93;86.21;100568.48;645068;218;32712;-74
2021/04/19 00:26:16;;;;;;;10.30;7.57;;;;;;;8.52;86.51;100570.53;650178;216;26903;-74
2021/04/19 00:28:43;;;;;;;11.13;8.23;;;;;;;8.51;86.82;100571.95;654560;217;24742;-74
2021/04/19 00:31:11;;;;;;;11.97;8.47;;;;;;;8.50;87.97;100567.72;641556;222;24816;-74
2021/04/19 00:33:39;;;;;;;10.77;8.13;;;;;;;8.59;87.08;100563.92;651038;219;24852;-73
2021/04/19 00:36:09;;;;;;;14.37;9.17;;;;;;;8.99;84.74;100556.77;638266;220;32741;-74
2021/04/19 00:38:35;;;;;;;12.70;9.73;;;;;;;8.71;85.91;100569.05;649787;221;24813;-74
2021/04/19 00:41:03;;;;;;;13.23;8.57;;;;;;;8.37;87.83;100569.64;646816;220;24773;-74
2021/04/19 00:43:32;;;;;;;10.53;8.10;;;;;;;7.85;89.70;100575.81;643286;221;24824;-74
2021/04/19 00:46:03;;;;;;;11.57;8.65;;;;;;;8.44;87.83;100568.20;637025;221;32689;-74
2021/04/19 00:48:30;;;;;;;11.67;8.50;;;;;;;8.07;88.94;100571.09;642170;221;24852;-74
2021/04/19 00:50:59;;;;;;;18.40;8.67;;;;;;;8.10;89.53;100567.44;639573;221;24805;-74
2021/04/19 00:53:26;;;;;;;11.17;8.60;;;;;;;8.07;90.10;100571.09;658556;217;26894;-74
2021/04/19 00:55:54;;;;;;;9.97;8.40;;;;;;;8.25;89.55;100565.75;642829;221;25367;-74
2021/04/19 00:58:23;;;;;;;11.03;7.63;;;;;;;8.04;89.91;100563.57;643151;221;24852;-74
2021/04/19 01:00:51;;;;;;;9.93;8.13;;;;;;;7.88;90.55;100566.53;645161;218;24781;-74
2021/04/19 01:03:20;;;;;;;13.83;8.20;;;;;;;7.90;91.08;100564.64;647395;221;24757;-74
2021/04/19 01:05:48;;;;;;;9.80;8.30;;;;;;;7.95;90.85;100562.98;640334;222;24834;-73
2021/04/19 01:08:16;;;;;;;10.17;7.83;;;;;;;7.79;91.15;100558.64;648744;217;29031;-73
2021/04/19 01:10:44;;;;;;;15.00;8.20;;;;;;;7.73;91.38;100560.75;654954;217;24795;-74
2021/04/19 01:13:12;;;;;;;12.73;8.57;;;;;;;8.08;90.92;100554.61;639732;221;24855;-74
2021/04/19 01:15:41;;;;;;;11.70;8.10;;;;;;;8.25;90.10;100551.97;653511;217;24772;-74
2021/04/19 01:18:09;;;;;;;10.90;7.90;;;;;;;8.26;89.47;100549.26;647636;217;24734;-74
2021/04/19 01:20:39;;;;;;;15.10;8.80;;;;;;;8.28;88.90;100549.13;646818;221;24790;-74
2021/04/19 01:23:07;;;;;;;11.70;8.10;;;;;;;8.30;88.70;100548.09;648895;217;24764;-74
2021/04/19 01:25:35;;;;;;;13.47;9.27;;;;;;;8.23;88.92;100553.86;657984;217;26950;-74
2021/04/19 01:28:03;;;;;;;14.40;9.17;;;;;;;8.41;89.10;100552.42;645566;218;24891;-74
2021/04/19 01:30:32;;;;;;;10.37;8.20;;;;;;;8.51;88.38;100542.97;648832;218;24764;-73
2021/04/19 01:33:00;;;;;;;12.40;8.60;;;;;;;8.31;88.36;100543.73;649349;218;24784;-74
2021/04/19 01:35:28;;;;;;;14.00;9.20;;;;;;;8.44;88.36;100543.10;650173;219;24766;-74
2021/04/19 01:37:56;;;;;;;12.50;9.20;;;;;;;8.32;88.11;100547.49;645943;222;24757;-74
2021/04/19 01:40:24;;;;;;;14.00;8.30;;;;;;;8.09;89.72;100551.06;637832;222;24829;-74
2021/04/19 01:42:52;;;;;;;15.13;10.37;;;;;;;8.57;88.27;100547.65;641262;221;32775;-74
2021/04/19 01:45:20;;;;;;;13.00;10.10;;;;;;;8.95;86.19;100533.81;638745;219;32830;-73
2021/04/19 01:47:48;;;;;;;14.37;10.37;;;;;;;8.68;87.21;100530.41;649160;221;24814;-73
2021/04/19 01:50:16;;;;;;;15.00;10.23;;;;;;;8.51;87.45;100539.56;660785;217;26888;-74
2021/04/19 01:52:44;;;;;;;14.77;9.40;;;;;;;8.53;88.12;100540.25;647850;218;24788;-74
2021/04/19 01:55:13;;;;;;;12.60;9.23;;;;;;;8.60;88.70;100537.05;641461;221;24813;-74
2021/04/19 01:57:41;;;;;;;14.03;10.10;;;;;;;8.68;88.41;100533.00;647625;218;25269;-73
2021/04/19 02:00:10;;;;;;;12.40;9.80;;;;;;;8.68;88.47;100526.05;644924;221;24766;-73
2021/04/19 02:02:41;;;;;;;15.53;10.10;;;;;;;8.54;89.07;100532.34;636919;221;24811;-74
2021/04/19 02:05:10;;;;;;;11.30;8.80;;;;;;;8.54;88.82;100534.12;650764;218;24803;-74
2021/04/19 02:07:38;;;;;;;15.13;11.20;;;;;;;9.05;87.06;100518.66;638904;219;32612;-74
2021/04/19 02:10:07;;;;;;;12.10;9.17;;;;;;;8.76;87.88;100520.24;637540;221;22684;-74
2021/04/19 02:12:39;;;;;;;12.57;9.83;;;;;;;8.73;88.22;100529.58;654118;217;24760;-74
2021/04/19 02:15:08;;;;;;;16.73;9.63;;;;;;;8.79;89.04;100532.95;651800;218;24774;-73
2021/04/19 02:17:38;;;;;;;13.77;10.30;;;;;;;8.75;88.97;100531.09;649097;218;24803;-73
2021/04/19 02:20:09;;;;;;;14.90;10.37;;;;;;;8.75;88.71;100524.61;652786;217;24824;-74
2021/04/19 02:22:37;;;;;;;10.27;9.17;;;;;;;8.73;89.32;100539.48;645736;220;27023;-73
2021/04/19 02:25:06;;;;;;;11.37;10.17;;;;;;;8.58;89.19;100532.91;629736;225;25089;-74
2021/04/19 02:27:34;;;;;;;16.40;10.43;;;;;;;8.58;90.09;100540.69;645294;222;24820;-73
2021/04/19 02:30:04;;;;;;;16.20;10.50;;;;;;;8.75;89.95;100540.64;640125;221;26959;-73
2021/04/19 02:32:33;;;;;;;13.50;9.73;;;;;;;8.68;89.35;100533.82;638309;222;24829;-74
2021/04/19 02:34:59;;;;;;;14.30;10.17;;;;;;;8.63;90.23;100532.09;656253;217;23779;-73
2021/04/19 02:37:27;;;;;;;16.50;10.40;;;;;;;8.66;90.36;100539.61;648482;217;24887;-73
2021/04/19 02:39:55;;;;;;;13.37;9.80;;;;;;;8.53;90.89;100542.84;653320;218;25949;-72
2021/04/19 02:42:23;;;;;;;15.57;10.87;;;;;;;8.56;90.56;100542.59;652230;218;24775;-73
2021/04/19 02:44:51;;;;;;;14.87;10.47;;;;;;;8.57;90.60;100542.47;652776;218;24770;-73
2021/04/19 02:47:19;;;;;;;17.00;11.47;;;;;;;8.44;91.35;100537.91;641138;222;24818;-73
2021/04/19 02:49:47;;;;;;;15.70;11.93;;;;;;;8.55;91.49;100531.87;642180;222;26998;-72
2021/04/19 02:52:15;;;;;;;13.20;10.00;;;;;;;8.34;92.04;100533.14;648007;217;24773;-72
2021/04/19 02:54:43;;;;;;;16.00;11.37;;;;;;;8.51;91.71;100539.56;652405;218;25063;-72
2021/04/19 02:57:11;;;;;;;15.27;11.60;;;;;;;8.40;92.76;100542.18;641143;219;24928;-73
2021/04/19 02:59:39;;;;;;;18.50;11.90;;;;;;;8.45;93.13;100542.66;659276;216;24764;-73
2021/04/19 03:02:07;;;;;;;16.93;12.07;;;;;;;8.55;92.47;100543.06;649759;218;24769;-73
2021/04/19 03:04:36;;;;;;;15.90;10.83;;;;;;;8.53;93.29;100542.84;656513;217;24827;-71
2021/04/19 03:07:04;;;;;;;13.80;10.17;;;;;;;8.49;92.67;100545.34;649364;220;24821;-72
2021/04/19 03:09:32;;;;;;;13.90;10.77;;;;;;;8.45;93.04;100535.70;636253;222;24823;-73
2021/04/19 03:12:00;;;;;;;15.90;11.97;;;;;;;8.61;92.68;100541.77;636306;222;25159;-73
2021/04/19 03:14:27;;;;;;;14.10;11.83;;;;;;;8.98;90.74;100520.10;632238;222;32807;-73
2021/04/19 03:16:56;;;;;;;20.73;13.17;;;;;;;8.77;92.17;100527.89;640460;221;24880;-72
2021/04/19 03:19:24;;;;;;;17.27;11.90;;;;;;;8.55;93.18;100534.47;636451;221;24838;-71
2021/04/19 03:21:52;;;;;;;14.83;11.90;;;;;;;8.29;94.03;100534.75;641328;221;24824;-73
2021/04/19 03:24:20;;;;;;;16.40;11.70;;;;;;;8.41;93.82;100540.76;638034;224;23838;-72
2021/04/19 03:26:47;;;;;;;15.80;10.57;;;;;;;8.18;95.32;100536.11;641130;222;26987;-75
2021/04/19 03:29:15;;;;;;;16.20;12.20;;;;;;;8.35;94.14;100539.14;637235;221;24832;-75
2021/04/19 03:31:43;;;;;;;17.03;11.53;;;;;;;8.15;94.51;100529.84;640935;222;24860;-75
2021/04/19 03:34:11;;;;;;;17.53;12.17;;;;;;;7.67;96.97;100534.05;638266;221;24939;-75
2021/04/19 03:36:39;;;;;;;18.60;12.43;;;;;;;7.62;98.71;100534.89;637772;221;24805;-77
2021/04/19 03:39:07;;;;;;;20.87;13.17;;;;;;;7.86;97.80;100532.61;653720;217;24788;-75
2021/04/19 03:41:35;;;;;;;16.77;12.00;;;;;;;8.00;97.94;100528.47;644785;221;24834;-74
2021/04/19 03:44:04;;;;;;;16.13;12.70;;;;;;;8.09;97.19;100526.46;636730;221;24823;-75
2021/04/19 03:46:31;;;;;;;17.73;12.63;;;;;;;8.23;96.03;100522.77;636917;222;24848;-75
2021/04/19 03:48:59;;;;;;;18.60;13.60;;;;;;;8.67;94.81;100517.92;631609;221;32773;-75
2021/04/19 03:51:27;;;;;;;20.83;13.40;;;;;;;8.26;95.73;100523.34;634885;222;23854;-75
2021/04/19 03:53:56;;;;;;;17.90;12.43;;;;;;;8.36;95.49;100525.24;639573;222;25103;-75
2021/04/19 03:56:24;;;;;;;19.90;13.13;;;;;;;8.50;95.34;100524.95;635730;222;24807;-75
2021/04/19 03:58:52;;;;;;;22.40;12.80;;;;;;;8.40;95.92;100531.34;640568;222;26975;-74
2021/04/19 04:01:20;;;;;;;18.37;12.70;;;;;;;8.50;95.49;100524.95;657960;217;24774;-74
2021/04/19 04:03:48;;;;;;;16.93;12.90;;;;;;;8.41;96.14;100523.09;644605;220;24832;-74
2021/04/19 04:06:16;;;;;;;20.10;14.78;;;;;;;9.01;93.50;100511.23;637366;221;32776;-74
2021/04/19 04:08:44;;;;;;;16.97;13.37;;;;;;;8.59;94.39;100519.03;643451;219;23747;-75
2021/04/19 04:11:12;;;;;;;19.17;13.30;;;;;;;8.49;95.00;100522.84;642588;221;24821;-75
2021/04/19 04:13:40;;;;;;;15.30;12.60;;;;;;;8.36;95.08;100520.06;648006;220;24799;-72
2021/04/19 04:16:08;;;;;;;20.63;13.70;;;;;;;8.46;94.89;100527.45;653106;217;24801;-75
2021/04/19 04:18:36;;;;;;;17.27;13.33;;;;;;;8.28;95.92;100527.92;649523;216;24769;-74
2021/04/19 04:21:04;;;;;;;19.87;12.70;;;;;;;8.25;96.27;100526.88;649711;218;24775;-75
2021/04/19 04:23:32;;;;;;;17.80;13.60;;;;;;;8.30;96.69;100530.39;649571;219;24780;-74
2021/04/19 04:26:00;;;;;;;18.00;12.53;;;;;;;8.48;96.33;100528.97;646548;218;24946;-74
2021/04/19 04:28:28;;;;;;;19.60;13.60;;;;;;;8.49;95.99;100532.37;647760;218;25011;-74
2021/04/19 04:30:56;;;;;;;23.57;16.73;;;;;;;8.93;93.50;100516.60;646190;217;43318;-74
2021/04/19 04:33:24;;;;;;;20.80;14.57;;;;;;;8.47;95.35;100520.84;643785;221;23710;-74
2021/04/19 04:35:52;;;;;;;18.20;13.30;;;;;;;8.39;96.70;100519.33;647765;219;24728;-73
2021/04/19 04:38:19;;;;;;;18.30;13.00;;;;;;;8.44;96.52;100521.55;651475;219;24783;-73
2021/04/19 04:40:47;;;;;;;16.03;12.57;;;;;;;8.07;97.99;100522.35;647761;218;24779;-74
2021/04/19 04:43:15;;;;;;;19.83;13.10;;;;;;;8.14;98.03;100523.50;649031;218;24823;-74
2021/04/19 04:45:43;;;;;;;17.50;13.20;;;;;;;7.93;98.25;100523.44;649793;218;25140;-74
2021/04/19 04:48:12;;;;;;;20.60;15.87;;;;;;;8.04;98.35;100527.30;645034;218;32987;-74
2021/04/19 04:50:41;;;;;;;21.02;16.80;;;;;;;7.86;98.97;100527.44;643849;218;32734;-75
2021/04/19 04:53:09;;;;;;;26.07;18.07;;;;;;;7.80;99.36;100530.52;639072;222;33137;-74
2021/04/19 04:55:38;;;;;;;25.97;18.27;;;;;;;7.97;99.14;100526.13;639897;220;32703;-74
2021/04/19 04:58:06;;;;;;;21.20;15.07;;;;;;;8.01;99.52;100523.64;644622;221;23647;-74
2021/04/19 05:00:34;;;;;;;21.40;14.73;;;;;;;8.04;99.61;100519.06;643023;222;24797;-74
2021/04/19 05:03:02;;;;;;;17.40;13.00;;;;;;;8.07;99.34;100520.58;644288;222;24790;-74
2021/04/19 05:05:30;;;;;;;18.30;15.07;;;;;;;8.25;99.02;100526.88;656037;217;28975;-74
2021/04/19 05:07:58;;;;;;;20.07;14.17;;;;;;;8.19;98.12;100524.80;649597;217;24884;-74
2021/04/19 05:10:26;;;;;;;20.67;14.13;;;;;;;8.06;98.47;100525.41;653632;217;25029;-74
2021/04/19 05:12:53;;;;;;;22.33;14.53;;;;;;;8.08;98.41;100523.52;653563;217;24751;-74
2021/04/19 05:15:21;;;;;;;20.83;13.50;;;;;;;7.84;99.65;100525.44;657231;217;24831;-74
2021/04/19 05:17:49;;;;;;;23.63;17.17;;;;;;;8.17;98.60;100525.87;649857;217;32696;-74
2021/04/19 05:20:18;;;;;;;23.50;17.30;;;;;;;8.22;99.16;100527.14;647601;217;43601;-74
2021/04/19 05:22:46;;;;;;;24.33;17.23;;;;;;;7.99;99.16;100525.53;656450;217;23686;-74
2021/04/19 05:25:14;;;;;;;22.13;15.57;;;;;;;8.03;100.00;100523.07;656799;217;26914;-74
2021/04/19 05:27:42;;;;;;;23.50;15.73;;;;;;;7.96;100.00;100533.55;654683;217;24776;-74
2021/04/19 05:30:11;;;;;;;19.00;14.40;;;;;;;7.95;100.00;100542.27;655906;217;24815;-74
2021/04/19 05:32:39;;;;;;;18.20;13.87;;;;;;;8.11;99.70;100537.52;652003;217;25113;-74
2021/04/19 05:35:08;;;;;;;20.33;14.60;;;;;;;8.34;100.00;100546.10;642440;221;24830;-71
2021/04/19 05:37:36;;;;;;;18.73;14.30;;;;;;;8.38;99.58;100550.56;642107;221;24882;-74
2021/04/19 05:40:05;;;;;;;20.07;14.87;;;;;;;8.63;98.40;100547.64;647832;219;23781;-74
2021/04/19 05:42:33;;;;;;;18.77;14.30;;;;;;;8.63;98.18;100551.53;650222;218;24778;-74
2021/04/19 05:45:01;;;;;;;20.30;14.57;;;;;;;8.47;98.84;100552.42;639768;221;24858;-74
2021/04/19 05:47:29;;;;;;;22.50;16.60;;;;;;;9.03;97.05;100554.77;647167;217;32593;-75
2021/04/19 05:49:57;;;;;;;21.93;15.00;;;;;;;8.72;97.40;100554.66;638666;221;24860;-74
2021/04/19 05:52:25;;;;;;;19.07;15.13;;;;;;;8.60;97.51;100563.45;656347;217;24733;-74
2021/04/19 05:54:53;;;;;;;21.50;14.10;;;;;;;8.58;98.35;100562.73;642879;220;24794;-74
2021/04/19 05:57:24;;;;;;;20.97;14.97;;;;;;;8.69;97.85;100560.09;644640;221;24981;-74
2021/04/19 05:59:55;;;;;;;19.93;14.80;;;;;;;8.77;97.94;100556.42;640076;222;25092;-71
2021/04/19 06:02:26;;;;;;;25.60;15.03;;;;;;;8.70;97.55;100564.80;650209;217;24743;-72
2021/04/19 06:04:53;;;;;;;18.30;14.43;;;;;;;8.78;98.38;100572.33;651296;217;24756;-72
2021/04/19 06:07:23;;;;;;;19.73;14.33;;;;;;;8.91;98.28;100564.38;661121;217;24764;-72
2021/04/19 06:09:51;;;;;;;23.33;15.33;;;;;;;8.98;97.48;100564.67;643695;221;24820;-75
2021/04/19 06:12:19;;;;;;;21.03;14.50;;;;;;;8.91;97.78;100562.59;642450;221;24809;-74
2021/04/19 06:14:47;;;;;;;20.80;14.33;;;;;;;8.67;98.06;100572.84;655789;217;23838;-74
2021/04/19 06:17:15;;;;;;;20.90;15.50;;;;;;;9.14;95.58;100559.38;638457;220;32758;-75
2021/04/19 06:19:44;;;;;;;21.40;15.77;;;;;;;9.08;96.44;100559.91;643631;222;24838;-74
2021/04/19 06:22:15;;;;;;;18.05;15.30;;;;;;;8.98;95.68;100558.19;634525;221;32703;-74
2021/04/19 06:24:46;;;;;;;21.90;15.23;;;;;;;8.94;96.30;100557.62;641326;221;23694;-80
2021/04/19 06:27:18;;;;;;;19.40;13.43;;;;;;;8.95;96.39;100559.27;642873;221;24792;-79
2021/04/19 06:29:46;;;;;;;20.13;14.40;;;;;;;9.26;95.37;100561.91;644980;222;26966;-79
2021/04/19 06:32:15;;;;;;;20.67;16.43;;;;;;;9.21;96.43;100561.84;653872;216;24806;-79
2021/04/19 06:34:43;;;;;;;23.50;15.23;;;;;;;9.17;96.35;100566.13;640795;221;24748;-79
2021/04/19 06:37:11;;;;;;;26.07;16.00;;;;;;;9.27;96.20;100564.86;640152;221;23812;-78
2021/04/19 06:39:39;;;;;;;22.13;17.20;;;;;;;9.77;93.98;100560.59;633623;221;32606;-78
2021/04/19 06:42:07;;;;;;;22.65;17.60;;;;;;;9.49;93.67;100551.26;636554;221;32733;-78
2021/04/19 06:44:35;;;;;;;22.07;17.23;;;;;;;9.92;93.34;100547.59;636556;220;32847;-79
2021/04/19 06:47:03;;;;;;;27.60;17.07;;;;;;;9.38;95.28;100551.33;637548;221;23666;-79
2021/04/19 06:49:31;;;;;;;28.80;17.20;;;;;;;9.40;94.96;100552.02;644066;221;23822;-78
2021/04/19 06:51:59;;;;;;;23.67;17.30;;;;;;;9.47;95.68;100559.66;640187;220;24794;-78
2021/04/19 06:54:27;;;;;;;24.70;16.50;;;;;;;9.71;95.31;100556.76;650624;217;24750;-79
2021/04/19 06:56:55;;;;;;;23.10;15.90;;;;;;;9.64;95.33;100558.70;636742;221;23819;-78
2021/04/19 06:59:23;;;;;;;23.20;16.10;;;;;;;9.79;94.93;100565.17;653718;217;24751;-79
2021/04/19 07:01:52;;;;;;;24.13;16.40;;;;;;;9.88;95.09;100558.38;657131;217;24778;-79
2021/04/19 07:04:20;;;;;;;22.73;16.10;;;;;;;9.71;94.46;100553.31;653927;217;24739;-79
2021/04/19 07:06:49;;;;;;;23.00;16.20;;;;;;;9.78;95.33;100554.45;651007;218;24768;-78
2021/04/19 07:09:20;;;;;;;29.27;17.27;;;;;;;9.89;95.24;100551.75;651711;218;24750;-78
2021/04/19 07:11:47;;;;;;;19.20;14.83;;;;;;;9.72;95.58;100557.58;646720;218;27955;-80
2021/04/19 07:14:15;;;;;;;26.00;17.00;;;;;;;9.74;94.70;100553.08;649714;218;24749;-78
2021/04/19 07:16:43;;;;;;;24.47;15.53;;;;;;;9.81;95.55;100560.67;643997;222;24802;-79
2021/04/19 07:19:11;;;;;;;24.03;17.27;;;;;;;9.71;94.91;100561.10;644942;221;24806;-78
2021/04/19 07:21:39;;;;;;;22.33;16.60;;;;;;;9.93;95.17;100566.59;645483;222;25924;-78
2021/04/19 07:24:08;;;;;;;21.20;16.17;;;;;;;9.96;94.32;100563.72;651669;217;24834;-78
2021/04/19 07:26:36;;;;;;;23.00;17.07;;;;;;;9.89;94.60;100559.55;657023;217;25228;-78
2021/04/19 07:29:04;;;;;;;25.10;17.80;;;;;;;9.90;94.46;100562.48;647039;218;24784;-78
2021/04/19 07:31:47;;;;;;;28.45;20.52;;;;;;;10.35;92.60;100557.69;637761;222;43814;-78
2021/04/19 07:34:16;;;;;;;24.10;18.17;;;;;;;10.35;93.33;100558.17;644442;222;23693;-79
2021/04/19 07:36:49;;;;;;;27.13;19.00;;;;;;;10.55;93.66;100559.81;639275;222;24863;-79
2021/04/19 07:39:18;;;;;;;28.80;18.90;;;;;;;10.61;93.21;100559.28;645594;221;24820;-78
2021/04/19 07:41:47;;;;;;;23.73;18.03;;;;;;;10.72;93.00;100564.02;644289;221;24876;-78
2021/04/19 07:44:39;;;;;;;29.43;18.50;;;;;;;10.47;93.42;100561.47;636522;221;27977;-78
2021/04/19 07:47:15;;;;;;;22.47;16.57;;;;;;;10.52;92.88;100563.99;637828;221;27984;-79
2021/04/19 07:49:55;;;;;;;28.73;18.00;;;;;;;10.73;92.45;100558.67;642583;221;27997;-79
2021/04/19 07:52:23;;;;;;;24.70;18.13;;;;;;;10.84;92.62;100560.28;647846;220;24820;-77
2021/04/19 07:55:05;;;;;;;24.47;18.23;;;;;;;10.78;91.15;100564.75;644363;221;24849;-77
2021/04/19 07:57:33;;;;;;;27.50;20.25;;;;;;;11.30;90.80;100557.76;636796;221;33210;-77
2021/04/19 08:00:01;;;;;;;29.30;21.50;;;;;;;11.51;89.92;100554.12;651990;217;32810;-78
2021/04/19 08:02:29;;;;;;;29.23;20.23;;;;;;;11.29;90.24;100562.63;660590;217;23676;-78
2021/04/19 08:04:57;;;;;;;27.10;18.70;;;;;;;10.93;91.39;100556.86;650906;217;24808;-78
2021/04/19 08:07:25;;;;;;;27.07;18.93;;;;;;;10.96;91.56;100561.78;653261;217;24758;-78
2021/04/19 08:09:56;;;;;;;27.83;19.70;;;;;;;11.10;91.64;100566.55;649795;217;24759;-78
2021/04/19 08:12:36;;;;;;;26.63;19.97;;;;;;;11.23;91.30;100567.08;655938;217;26942;-79
2021/04/19 08:15:05;;;;;;;25.10;19.30;;;;;;;11.23;90.73;100560.58;659953;217;24761;-79
2021/04/19 08:17:33;;;;;;;24.60;18.67;;;;;;;11.15;90.29;100563.08;656310;217;24765;-76
2021/04/19 08:20:01;;;;;;;25.33;18.53;;;;;;;11.25;90.53;100569.06;650720;217;24819;-76
2021/04/19 08:22:29;;;;;;;26.43;18.43;;;;;;;11.13;90.59;100571.52;647378;217;24759;-77
2021/04/19 08:25:11;;;;;;;26.70;18.70;;;;;;;11.09;90.53;100572.73;645622;222;24819;-78
2021/04/19 08:27:39;;;;;;;24.57;17.90;;;;;;;11.33;89.80;100576.19;645554;220;23835;-76
2021/04/19 08:30:08;;;;;;;29.63;19.00;;;;;;;11.58;89.47;100572.95;645980;222;24807;-76
2021/04/19 08:32:37;;;;;;;25.85;19.87;;;;;;;11.83;86.89;100553.28;649594;217;32573;-76
2021/04/19 08:35:07;;;;;;;23.60;19.10;;;;;;;11.71;87.19;100558.80;644060;222;23686;-76
2021/04/19 08:37:35;;;;;;;26.77;19.10;;;;;;;11.90;87.76;100561.33;649655;217;24787;-76
2021/04/19 08:40:03;;;;;;;25.00;18.90;;;;;;;11.96;86.55;100556.82;647695;217;24771;-77
2021/04/19 08:42:31;;;;;;;24.80;18.80;;;;;;;11.96;87.08;100554.70;653787;217;24959;-76
2021/04/19 08:44:59;;;;;;;27.97;19.20;;;;;;;12.09;87.60;100560.39;652691;217;24781;-77
2021/04/19 08:47:28;;;;;;;27.33;19.40;;;;;;;12.45;85.10;100552.13;654049;217;24808;-76
2021/04/19 08:49:58;;;;;;;32.20;20.43;;;;;;;12.47;84.94;100552.31;649653;217;25469;-77
2021/04/19 08:52:25;;;;;;;30.43;22.32;;;;;;;12.56;82.94;100545.39;649364;217;32819;-76
2021/04/19 08:54:53;;;;;;;30.20;21.00;;;;;;;12.17;86.84;100557.88;652324;217;23682;-78
2021/04/19 08:57:21;;;;;;;26.57;20.30;;;;;;;13.04;84.71;100550.17;655765;217;24744;-79
2021/04/19 08:59:49;;;;;;;26.90;18.17;;;;;;;12.77;82.97;100547.67;651896;217;24776;-76
2021/04/19 09:02:17;;;;;;;28.02;22.25;;;;;;;12.15;83.98;100554.61;651282;217;32568;-78
2021/04/19 09:05:01;;;;;;;26.73;20.03;;;;;;;12.13;85.38;100563.88;652437;217;23672;-79
2021/04/19 09:07:30;;;;;;;30.60;20.87;;;;;;;12.63;85.09;100559.95;649243;217;25052;-79
2021/04/19 09:09:58;;;;;;;23.67;19.17;;;;;;;12.72;85.01;100565.10;653935;217;24757;-77
2021/04/19 09:12:28;;;;;;;31.23;20.50;;;;;;;12.82;83.99;100561.60;654527;217;24758;-76
2021/04/19 09:15:06;;;;;;;25.47;19.33;;;;;;;13.05;82.61;100548.38;654425;217;25218;-76
2021/04/19 09:17:34;;;;;;;23.97;17.80;;;;;;;12.81;82.15;100550.34;651326;217;23777;-77
2021/04/19 09:20:02;;;;;;;31.20;20.53;;;;;;;13.34;81.98;100551.53;647018;217;24822;-76
2021/04/19 09:22:30;;;;;;;28.83;22.00;;;;;;;13.61;79.90;100536.16;648685;217;32574;-77
2021/04/19 09:25:01;;;;;;;22.60;17.87;;;;;;;13.12;81.60;100544.68;659338;217;24761;-77
2021/04/19 09:27:48;;;;;;;28.20;18.53;;;;;;;13.27;81.21;100545.30;656879;217;23794;-77
2021/04/19 09:30:35;;;;;;;24.60;17.80;;;;;;;13.58;79.68;100544.31;648544;217;24824;-78
2021/04/19 09:33:12;;;;;;;25.60;18.43;;;;;;;13.74;79.32;100542.25;653162;217;23763;-76
2021/04/19 09:35:44;;;;;;;25.67;17.50;;;;;;;13.75;79.65;100538.66;658235;217;24808;-79
2021/04/19 09:38:11;;;;;;;26.00;20.55;;;;;;;14.24;78.19;100538.33;649010;217;43378;-79
2021/04/19 09:40:46;;;;;;;25.08;20.50;;;;;;;14.26;77.26;100531.63;649355;217;32828;-80
2021/04/19 09:43:14;;;;;;;25.33;18.73;;;;;;;13.83;77.93;100536.58;656065;217;23657;-79
2021/04/19 09:45:54;;;;;;;23.00;17.87;;;;;;;13.78;77.96;100536.22;658168;217;24772;-79
2021/04/19 09:48:34;;;;;;;28.03;18.80;;;;;;;13.50;79.39;100549.48;651191;217;23768;-76
2021/04/19 09:51:03;;;;;;;24.90;18.37;;;;;;;13.05;80.65;100550.50;649436;217;24750;-77
2021/04/19 09:53:31;;;;;;;25.50;18.30;;;;;;;12.43;81.21;100560.11;652041;217;24820;-79
2021/04/19 09:55:59;;;;;;;26.20;18.93;;;;;;;12.75;81.91;100563.98;646676;221;24806;-76
2021/04/19 09:58:27;;;;;;;25.10;18.70;;;;;;;12.85;80.73;100563.91;641486;221;24792;-78
2021/04/19 10:00:55;;;;;;;23.87;17.50;;;;;;;12.60;81.28;100561.56;639428;222;24882;-77
2021/04/19 10:03:23;;;;;;;30.20;22.22;;;;;;;13.13;80.23;100560.69;636578;221;32749;-77
2021/04/19 10:05:51;;;;;;;25.93;20.17;;;;;;;12.58;81.76;100568.73;646528;219;23725;-71
2021/04/19 10:08:19;;;;;;;24.87;18.30;;;;;;;12.31;82.43;100562.59;648679;216;24786;-72
2021/04/19 10:10:50;;;;;;;22.33;17.90;;;;;;;12.24;83.11;100568.05;655683;217;24774;-71
2021/04/19 10:13:26;;;;;;;26.27;20.70;;;;;;;12.44;82.05;100559.14;645261;218;32651;-72
2021/04/19 10:16:02;;;;;;;24.57;18.37;;;;;;;12.11;82.24;100556.70;646898;218;27945;-72
2021/04/19 10:18:31;;;;;;;26.27;18.50;;;;;;;12.44;81.71;100561.75;650044;218;26945;-72
2021/04/19 10:20:59;;;;;;;20.93;16.83;;;;;;;11.96;83.08;100556.82;652781;217;24846;-72
2021/04/19 10:23:33;;;;;;;26.73;20.60;;;;;;;11.52;82.48;100559.19;654285;217;34557;-74
2021/04/19 10:26:01;;;;;;;27.70;20.37;;;;;;;11.32;85.78;100568.52;650630;218;26916;-74
2021/04/19 10:28:32;;;;;;;26.60;18.80;;;;;;;11.26;86.82;100573.78;644302;221;24783;-74
2021/04/19 10:31:07;;;;;;;25.93;18.03;;;;;;;11.54;85.58;100567.70;657511;217;27968;-74
2021/04/19 10:33:34;;;;;;;27.10;18.10;;;;;;;11.88;83.97;100570.59;637451;221;24774;-71
2021/04/19 10:36:12;;;;;;;34.43;21.77;;;;;;;11.71;84.45;100560.91;644334;221;23844;-74
2021/04/19 10:38:40;;;;;;;90.03;55.37;;;;;;;11.56;84.78;100564.95;654606;217;25914;-73
2021/04/19 10:41:08;;;;;;;69.30;43.97;;;;;;;11.79;84.03;100558.42;646267;220;24805;-74
2021/04/19 10:43:36;;;;;;;86.03;55.20;;;;;;;11.99;83.10;100555.25;638205;222;24788;-74
2021/04/19 10:46:19;;;;;;;32.20;24.47;;;;;;;11.93;84.16;100557.12;654076;217;24776;-74
2021/04/19 10:48:47;;;;;;;27.43;20.27;;;;;;;11.97;82.72;100543.34;650981;217;24762;-74
2021/04/19 10:51:16;;;;;;;21.90;16.93;;;;;;;11.95;82.13;100538.72;651703;218;24768;-75
2021/04/19 10:53:44;;;;;;;22.80;17.57;;;;;;;11.68;82.28;100546.84;642378;221;24782;-74
2021/04/19 10:56:14;;;;;;;22.63;17.53;;;;;;;11.98;83.78;100552.31;638368;222;24878;-75
2021/04/19 10:58:40;;;;;;;28.73;19.07;;;;;;;12.26;82.10;100540.06;643412;221;24808;-72
2021/04/19 11:01:08;;;;;;;22.87;18.60;;;;;;;12.13;81.85;100537.81;646292;222;23782;-72
2021/04/19 11:03:37;;;;;;;25.53;18.53;;;;;;;12.05;82.10;100536.89;660570;217;27986;-72
2021/04/19 11:06:05;;;;;;;24.50;18.80;;;;;;;11.75;83.39;100545.80;638079;221;24892;-73
2021/04/19 11:08:50;;;;;;;26.50;18.23;;;;;;;12.37;82.17;100543.73;641829;221;24811;-72
2021/04/19 11:11:24;;;;;;;25.33;18.10;;;;;;;12.39;82.74;100550.13;656524;217;24743;-72
2021/04/19 11:13:52;;;;;;;25.60;18.60;;;;;;;11.33;85.46;100551.45;649778;217;24964;-72
2021/04/19 11:16:21;;;;;;;33.57;20.30;;;;;;;11.42;86.51;100555.81;648067;219;24821;-72
2021/04/19 11:18:49;;;;;;;28.38;21.05;;;;;;;11.32;86.60;100560.70;644984;217;32582;-72
2021/04/19 11:21:33;;;;;;;29.33;19.53;;;;;;;11.28;87.46;100566.68;648046;221;23636;-75
2021/04/19 11:24:09;;;;;;;26.27;18.73;;;;;;;11.40;86.06;100556.44;646501;221;26920;-74
2021/04/19 11:26:36;;;;;;;27.33;18.97;;;;;;;11.72;86.78;100553.91;645402;221;24867;-74